Time;durP1;ratioP1;P1;durP2;ratioP2;P2;SDS_P1;SDS_P2;PMS_P1;PMS_P2;Temp;Humidity;BMP_temperature;BMP_pressure;BME280_temperature;BME280_humidity;BME280_pressure;Samples;Min_cycle;Max_cycle;Signal;HPM_P1;HPM_P2
2022/07/07 00:02:24;;;;;;;8.48;2.83;;;14.40;99.90;;;;;;5040691;28;20507;-51
2022/07/07 00:04:51;;;;;;;3.83;2.88;;;14.40;99.90;;;;;;5040921;28;20200;-49
2022/07/07 00:07:19;;;;;;;4.10;2.75;;;14.40;99.90;;;;;;5040854;28;20200;-51
2022/07/07 00:09:46;;;;;;;4.22;2.60;;;14.20;99.90;;;;;;5041018;28;20250;-55
2022/07/07 00:12:13;;;;;;;2.72;2.53;;;14.30;99.90;;;;;;5040697;28;20512;-48
2022/07/07 00:14:41;;;;;;;3.08;2.70;;;14.40;99.90;;;;;;5040957;28;20216;-49
2022/07/07 00:17:08;;;;;;;10.20;2.80;;;14.40;99.90;;;;;;5040628;28;20208;-47
2022/07/07 00:19:35;;;;;;;3.08;2.60;;;14.40;99.90;;;;;;5041059;28;20228;-55
2022/07/07 00:22:03;;;;;;;3.67;2.40;;;14.40;99.90;;;;;;5040047;28;20605;-49
2022/07/07 00:24:30;;;;;;;3.28;2.97;;;14.40;99.90;;;;;;5039814;28;20259;-50
2022/07/07 00:26:57;;;;;;;5.03;2.80;;;14.50;99.90;;;;;;5040328;28;20201;-49
2022/07/07 00:29:24;;;;;;;4.93;2.83;;;14.60;99.90;;;;;;5040331;28;20551;-54
2022/07/07 00:31:52;;;;;;;4.07;3.08;;;14.60;99.90;;;;;;5040177;28;20346;-50
2022/07/07 00:34:19;;;;;;;2.67;2.30;;;14.30;99.90;;;;;;5040429;28;20264;-51
2022/07/07 00:36:47;;;;;;;5.13;2.95;;;14.50;99.90;;;;;;5039950;28;20204;-52
2022/07/07 00:39:14;;;;;;;3.88;2.85;;;14.70;99.90;;;;;;5039940;28;20286;-51
2022/07/07 00:41:41;;;;;;;3.45;3.05;;;14.60;99.90;;;;;;5039892;28;20228;-54
2022/07/07 00:44:13;;;;;;;6.50;3.80;;;14.60;99.90;;;;;;5040369;28;20197;-53
2022/07/07 00:46:53;;;;;;;6.68;3.53;;;14.70;99.90;;;;;;5040245;28;20234;-52
2022/07/07 00:49:21;;;;;;;3.80;3.35;;;14.70;99.90;;;;;;5040369;28;20224;-50
2022/07/07 00:51:49;;;;;;;5.65;3.22;;;14.70;99.90;;;;;;5040236;28;20214;-52
2022/07/07 00:54:16;;;;;;;4.80;3.25;;;14.60;99.90;;;;;;5040597;28;20200;-50
2022/07/07 00:56:44;;;;;;;8.07;3.92;;;14.40;99.90;;;;;;5039932;28;20238;-51
2022/07/07 00:59:14;;;;;;;4.20;3.80;;;14.20;99.90;;;;;;5039668;28;20220;-48
2022/07/07 01:01:42;;;;;;;5.47;3.78;;;14.20;99.90;;;;;;5039628;28;20219;-55
2022/07/07 01:04:12;;;;;;;4.47;3.45;;;14.20;99.90;;;;;;5039457;28;20200;-50
2022/07/07 01:06:40;;;;;;;4.53;4.10;;;14.20;99.90;;;;;;5039693;28;20196;-48
2022/07/07 01:09:08;;;;;;;3.60;3.30;;;14.20;99.90;;;;;;5039617;28;20284;-47
2022/07/07 01:11:47;;;;;;;5.03;4.10;;;14.20;99.90;;;;;;5039752;28;20207;-48
2022/07/07 01:14:15;;;;;;;4.22;3.25;;;14.00;99.90;;;;;;5039579;28;20498;-48
2022/07/07 01:16:43;;;;;;;4.82;3.25;;;14.00;99.90;;;;;;5039445;28;20208;-50
2022/07/07 01:19:11;;;;;;;8.05;4.38;;;13.90;99.90;;;;;;5039429;28;20415;-52
2022/07/07 01:21:57;;;;;;;5.25;3.65;;;13.80;99.90;;;;;;5039542;28;20224;-49
2022/07/07 01:24:27;;;;;;;5.05;4.13;;;13.70;99.90;;;;;;5039393;28;20426;-52
2022/07/07 01:27:10;;;;;;;12.20;4.18;;;13.70;99.90;;;;;;5039356;28;20250;-49
2022/07/07 01:29:40;;;;;;;5.47;3.97;;;13.70;99.90;;;;;;5039322;28;20216;-49
2022/07/07 01:32:08;;;;;;;5.45;3.90;;;13.70;99.90;;;;;;5039189;28;20196;-49
2022/07/07 01:34:37;;;;;;;6.63;3.53;;;13.50;99.90;;;;;;5039148;28;20196;-51
2022/07/07 01:37:05;;;;;;;8.05;4.20;;;13.60;99.90;;;;;;5038417;28;20238;-50
2022/07/07 01:39:34;;;;;;;7.18;4.57;;;13.60;99.90;;;;;;5039018;28;20228;-50
2022/07/07 01:42:01;;;;;;;6.30;5.13;;;13.60;99.90;;;;;;5039476;28;20517;-48
2022/07/07 01:44:37;;;;;;;14.80;4.20;;;13.40;99.90;;;;;;5039367;28;20393;-48
2022/07/07 01:47:05;;;;;;;6.57;4.57;;;13.50;99.90;;;;;;5039089;28;20271;-49
2022/07/07 01:49:33;;;;;;;6.63;4.50;;;13.70;99.90;;;;;;5038972;28;20587;-48
2022/07/07 01:52:03;;;;;;;9.82;4.00;;;13.70;99.90;;;;;;5039375;28;20391;-52
2022/07/07 01:54:32;;;;;;;5.43;3.95;;;13.80;99.90;;;;;;5038916;28;20200;-49
2022/07/07 01:57:00;;;;;;;4.80;3.92;;;13.80;99.90;;;;;;5038926;28;20203;-50
2022/07/07 01:59:28;;;;;;;4.13;3.45;;;13.70;99.90;;;;;;5038593;28;20415;-49
2022/07/07 02:01:55;;;;;;;5.82;3.88;;;13.70;99.90;;;;;;5038933;28;20414;-48
2022/07/07 02:04:23;;;;;;;3.70;3.40;;;13.60;99.90;;;;;;5038605;28;20192;-51
2022/07/07 02:06:51;;;;;;;4.10;2.95;;;13.60;99.90;;;;;;5038856;28;20238;-50
2022/07/07 02:09:19;;;;;;;3.00;2.67;;;13.60;99.90;;;;;;5039067;28;20223;-50
2022/07/07 02:11:46;;;;;;;5.65;4.00;;;13.60;99.90;;;;;;5039118;28;20599;-50
2022/07/07 02:14:13;;;;;;;4.40;3.35;;;13.60;99.90;;;;;;5039058;28;20544;-51
2022/07/07 02:16:41;;;;;;;4.18;3.78;;;13.60;99.90;;;;;;5041192;28;20207;-51
2022/07/07 02:19:08;;;;;;;8.10;3.58;;;13.60;99.90;;;;;;5039982;28;20319;-50
2022/07/07 02:21:36;;;;;;;4.20;3.38;;;13.70;99.90;;;;;;5039548;28;20546;-53
2022/07/07 02:24:04;;;;;;;3.97;3.42;;;13.70;99.90;;;;;;5040792;28;20243;-51
2022/07/07 02:26:33;;;;;;;8.13;3.65;;;13.60;99.90;;;;;;5040725;28;20250;-52
2022/07/07 02:29:02;;;;;;;6.53;4.22;;;13.60;99.90;;;;;;5038811;28;20250;-54
2022/07/07 02:31:30;;;;;;;3.40;3.00;;;13.60;99.90;;;;;;5039107;28;20207;-49
2022/07/07 02:33:57;;;;;;;4.50;3.97;;;13.50;99.90;;;;;;5038910;28;20216;-50
2022/07/07 02:36:24;;;;;;;4.72;3.33;;;13.50;99.90;;;;;;5038444;28;20528;-52
2022/07/07 02:38:52;;;;;;;5.10;3.33;;;13.50;99.90;;;;;;5038552;28;20538;-52
2022/07/07 02:41:21;;;;;;;4.80;3.55;;;13.40;99.90;;;;;;5038286;28;20274;-54
2022/07/07 02:43:49;;;;;;;3.92;3.60;;;13.40;99.90;;;;;;5038544;28;20487;-51
2022/07/07 02:46:17;;;;;;;5.93;3.78;;;13.50;99.90;;;;;;5038028;28;20197;-50
2022/07/07 02:48:44;;;;;;;4.28;3.47;;;13.70;99.90;;;;;;5041289;28;20224;-49
2022/07/07 02:51:12;;;;;;;6.47;4.13;;;13.60;99.90;;;;;;5042329;28;20429;-55
2022/07/07 02:53:39;;;;;;;3.78;3.45;;;13.70;99.90;;;;;;5042279;28;20199;-50
2022/07/07 02:56:07;;;;;;;3.55;2.80;;;13.70;99.90;;;;;;5042095;28;20204;-56
2022/07/07 02:58:35;;;;;;;3.53;3.22;;;13.90;99.90;;;;;;5041658;28;20268;-51
2022/07/07 03:01:02;;;;;;;3.60;3.30;;;13.90;99.90;;;;;;5042284;28;20232;-50
2022/07/07 03:03:29;;;;;;;5.18;3.88;;;14.00;99.90;;;;;;5042410;28;20223;-50
2022/07/07 03:05:58;;;;;;;8.98;3.42;;;14.10;99.90;;;;;;5042878;28;20196;-53
2022/07/07 03:08:25;;;;;;;3.72;3.30;;;14.20;99.90;;;;;;5043092;28;20394;-49
2022/07/07 03:11:00;;;;;;;4.25;3.35;;;14.20;99.90;;;;;;5026397;28;20200;-49
2022/07/07 03:13:28;;;;;;;5.72;4.13;;;14.20;99.90;;;;;;5043062;28;20200;-51
2022/07/07 03:15:56;;;;;;;6.70;4.70;;;14.20;99.90;;;;;;5042834;28;20231;-50
2022/07/07 03:18:23;;;;;;;5.57;4.72;;;14.20;99.90;;;;;;5024822;28;20287;-54
2022/07/07 03:20:51;;;;;;;6.78;3.85;;;14.30;99.90;;;;;;5041929;28;20200;-49
2022/07/07 03:23:19;;;;;;;6.90;3.63;;;14.30;99.90;;;;;;5041983;28;20231;-52
2022/07/07 03:25:46;;;;;;;8.77;3.60;;;14.40;99.90;;;;;;5041644;28;20200;-52
2022/07/07 03:28:13;;;;;;;7.63;3.42;;;14.40;99.90;;;;;;5023788;28;20220;-55
2022/07/07 03:30:40;;;;;;;6.53;4.45;;;14.40;99.90;;;;;;5041570;28;20223;-54
2022/07/07 03:33:07;;;;;;;5.60;4.38;;;14.40;99.90;;;;;;5041324;28;20232;-48
2022/07/07 03:35:38;;;;;;;12.32;5.75;;;14.50;99.90;;;;;;5041725;28;20196;-51
2022/07/07 03:38:05;;;;;;;6.07;4.78;;;14.60;99.90;;;;;;5061582;23;20239;-56
2022/07/07 03:40:34;;;;;;;8.77;6.05;;;14.50;99.90;;;;;;5041862;28;20376;-55
2022/07/07 03:43:01;;;;;;;8.05;5.20;;;14.70;99.90;;;;;;5041586;28;20201;-55
2022/07/07 03:45:28;;;;;;;4.63;4.13;;;14.60;99.90;;;;;;5041375;28;20523;-53
2022/07/07 03:47:55;;;;;;;6.88;4.65;;;14.50;99.90;;;;;;5041482;28;20446;-58
2022/07/07 03:50:22;;;;;;;5.00;4.22;;;14.70;99.90;;;;;;5024455;28;20200;-58
2022/07/07 03:52:49;;;;;;;8.73;4.50;;;14.80;99.90;;;;;;5044266;28;20426;-57
2022/07/07 03:55:16;;;;;;;8.73;4.43;;;15.00;99.90;;;;;;5042343;28;20196;-56
2022/07/07 03:57:44;;;;;;;9.30;4.85;;;15.10;99.90;;;;;;5042858;28;20197;-58
2022/07/07 04:00:12;;;;;;;8.57;6.97;;;15.30;99.90;;;;;;5041124;28;20262;-58
2022/07/07 04:02:40;;;;;;;8.00;4.80;;;15.50;99.90;;;;;;5042189;28;20641;-57
2022/07/07 04:05:07;;;;;;;11.10;6.20;;;15.70;99.90;;;;;;5024059;28;20574;-58
2022/07/07 04:07:35;;;;;;;5.93;4.53;;;15.90;99.90;;;;;;5039956;28;20412;-58
2022/07/07 04:10:03;;;;;;;5.97;4.35;;;16.30;99.90;;;;;;5041234;28;20414;-58
2022/07/07 04:12:31;;;;;;;8.52;5.05;;;16.30;99.90;;;;;;5041207;28;20419;-58
2022/07/07 04:14:58;;;;;;;5.70;4.50;;;16.50;99.90;;;;;;5041322;28;20234;-58
2022/07/07 04:17:26;;;;;;;8.82;3.65;;;16.50;99.90;;;;;;5040975;28;20565;-58
2022/07/07 04:19:53;;;;;;;6.65;3.88;;;16.60;99.90;;;;;;5040657;28;20226;-58
2022/07/07 04:22:20;;;;;;;5.18;3.50;;;16.70;99.90;;;;;;5041174;28;20233;-57
2022/07/07 04:24:47;;;;;;;13.83;4.13;;;16.80;99.90;;;;;;5040869;28;20317;-56
2022/07/07 04:27:15;;;;;;;10.33;3.93;;;16.70;99.90;;;;;;5040706;28;20434;-58
2022/07/07 04:29:42;;;;;;;4.95;3.90;;;16.50;99.90;;;;;;5040236;28;20476;-55
2022/07/07 04:32:09;;;;;;;6.83;4.20;;;16.60;99.90;;;;;;5040523;28;20310;-57
2022/07/07 04:34:36;;;;;;;4.30;3.73;;;16.70;99.90;;;;;;5040684;28;20579;-59
2022/07/07 04:37:03;;;;;;;7.67;4.60;;;17.00;99.90;;;;;;5040776;28;20435;-56
2022/07/07 04:39:30;;;;;;;7.17;3.97;;;17.20;99.90;;;;;;5040528;28;20454;-58
2022/07/07 04:41:58;;;;;;;3.77;3.37;;;17.30;99.90;;;;;;5040737;28;20502;-58
2022/07/07 04:44:26;;;;;;;4.80;3.60;;;17.40;99.90;;;;;;5040447;28;20445;-56
2022/07/07 04:46:53;;;;;;;5.60;3.87;;;17.60;99.90;;;;;;5040014;28;20458;-58
2022/07/07 04:49:20;;;;;;;2.97;2.70;;;17.60;99.90;;;;;;5040333;28;20523;-58
2022/07/07 04:51:48;;;;;;;4.10;3.37;;;17.70;99.90;;;;;;5039797;28;20468;-59
2022/07/07 04:54:16;;;;;;;5.47;3.43;;;18.00;99.90;;;;;;5040528;28;20433;-58
2022/07/07 04:56:43;;;;;;;4.40;2.37;;;18.10;99.90;;;;;;5040283;28;20480;-59
2022/07/07 04:59:10;;;;;;;3.80;3.30;;;18.40;99.90;;;;;;5040541;28;20430;-57
2022/07/07 05:01:38;;;;;;;9.23;3.57;;;18.50;99.90;;;;;;5040906;28;20455;-58
2022/07/07 05:04:05;;;;;;;2.73;2.50;;;18.50;99.90;;;;;;5040378;28;20478;-58
2022/07/07 05:06:32;;;;;;;4.13;3.10;;;18.70;99.90;;;;;;5040190;28;20457;-56
2022/07/07 05:09:00;;;;;;;2.73;2.33;;;18.70;99.90;;;;;;5040281;28;20530;-57
2022/07/07 05:11:27;;;;;;;9.60;2.80;;;18.80;99.90;;;;;;5039523;28;20437;-56
2022/07/07 05:13:55;;;;;;;2.37;2.17;;;19.20;99.90;;;;;;5040132;28;20433;-57
2022/07/07 05:16:22;;;;;;;5.67;2.90;;;19.20;99.90;;;;;;5039574;28;20429;-58
2022/07/07 05:18:50;;;;;;;3.20;2.90;;;19.40;99.90;;;;;;5039737;28;20461;-58
2022/07/07 05:21:17;;;;;;;4.23;1.97;;;19.60;99.90;;;;;;5039582;28;20437;-58
2022/07/07 05:23:47;;;;;;;2.23;2.00;;;19.30;99.90;;;;;;5039476;28;20572;-56
2022/07/07 05:26:15;;;;;;;7.87;2.60;;;19.50;99.90;;;;;;5039508;28;20747;-58
2022/07/07 05:28:42;;;;;;;2.60;2.40;;;19.70;99.90;;;;;;5022680;28;20427;-58
2022/07/07 05:31:12;;;;;;;3.17;2.40;;;19.70;99.90;;;;;;5040101;28;20429;-57
2022/07/07 05:33:40;;;;;;;2.70;2.50;;;19.80;99.90;;;;;;5039931;28;20473;-57
2022/07/07 05:36:08;;;;;;;2.63;2.43;;;19.90;99.90;;;;;;5039723;28;20492;-57
2022/07/07 05:38:36;;;;;;;4.00;2.47;;;20.10;99.90;;;;;;5039242;28;20428;-56
2022/07/07 05:41:03;;;;;;;6.93;2.17;;;20.40;99.90;;;;;;5039222;28;20753;-60
2022/07/07 05:43:30;;;;;;;4.07;2.20;;;20.10;99.90;;;;;;5039502;28;20411;-58
2022/07/07 05:45:58;;;;;;;9.13;2.50;;;19.90;99.90;;;;;;5039129;28;20458;-59
2022/07/07 05:48:27;;;;;;;3.30;2.80;;;19.90;99.90;;;;;;5038982;28;20495;-59
2022/07/07 05:50:54;;;;;;;6.97;2.17;;;19.80;99.90;;;;;;5039151;28;20748;-58
2022/07/07 05:53:21;;;;;;;5.80;2.80;;;20.30;99.90;;;;;;5038780;28;20470;-57
2022/07/07 05:55:49;;;;;;;2.70;2.00;;;20.70;99.90;;;;;;5039731;28;20425;-57
2022/07/07 05:58:16;;;;;;;2.43;2.23;;;21.20;99.90;;;;;;5039048;28;20494;-60
2022/07/07 06:00:43;;;;;;;3.47;2.07;;;21.60;99.90;;;;;;5039223;28;20656;-59
2022/07/07 06:03:10;;;;;;;3.17;2.10;;;21.70;99.90;;;;;;5038847;28;20409;-57
2022/07/07 06:05:38;;;;;;;4.70;3.97;;;21.80;99.90;;;;;;5038816;28;20518;-57
2022/07/07 06:08:05;;;;;;;3.80;3.00;;;21.60;99.90;;;;;;5039091;28;20472;-59
2022/07/07 06:10:32;;;;;;;4.87;2.10;;;21.70;99.90;;;;;;5021820;28;20443;-59
2022/07/07 06:13:00;;;;;;;2.53;2.33;;;21.90;99.90;;;;;;5038933;28;20672;-57
2022/07/07 06:15:27;;;;;;;7.80;2.67;;;21.90;99.90;;;;;;5038842;28;20732;-59
2022/07/07 06:17:55;;;;;;;4.30;2.00;;;21.40;99.90;;;;;;5038693;28;20608;-58
2022/07/07 06:20:34;;;;;;;7.13;3.40;;;21.30;99.90;;;;;;5038755;28;20438;-58
2022/07/07 06:23:02;;;;;;;3.03;2.30;;;21.10;99.90;;;;;;5040922;28;20412;-56
2022/07/07 06:25:29;;;;;;;2.70;2.40;;;21.20;99.90;;;;;;5042879;28;20424;-58
2022/07/07 06:27:56;;;;;;;3.97;3.13;;;21.10;99.90;;;;;;5042549;28;20437;-59
2022/07/07 06:30:25;;;;;;;3.37;2.37;;;21.30;99.90;;;;;;5043157;28;20727;-56
2022/07/07 06:32:52;;;;;;;3.27;2.43;;;22.10;99.90;;;;;;5042265;28;20450;-58
2022/07/07 06:35:20;;;;;;;1.90;1.80;;;23.20;99.90;;;;;;5042957;28;20404;-55
2022/07/07 06:37:48;;;;;;;2.83;2.03;;;23.80;99.90;;;;;;5042540;28;20408;-57
2022/07/07 06:40:16;;;;;;;4.37;2.90;;;23.90;99.90;;;;;;5042146;28;20426;-56
2022/07/07 06:42:43;;;;;;;3.67;2.30;;;24.10;99.90;;;;;;5042367;28;20437;-58
2022/07/07 06:45:11;;;;;;;2.20;2.00;;;24.20;99.90;;;;;;5042569;28;20408;-60
2022/07/07 06:47:38;;;;;;;2.03;1.80;;;24.70;99.90;;;;;;5042088;28;20783;-59
2022/07/07 06:50:06;;;;;;;3.93;2.30;;;24.90;99.90;;;;;;5041955;28;20474;-59
2022/07/07 06:52:33;;;;;;;1.73;1.60;;;25.40;99.90;;;;;;5042479;28;20451;-57
2022/07/07 06:55:00;;;;;;;1.70;1.60;;;26.30;99.90;;;;;;5042410;28;20576;-56
2022/07/07 06:57:30;;;;;;;3.83;2.00;;;27.80;99.90;;;;;;5042240;28;20439;-58
2022/07/07 06:59:58;;;;;;;5.00;1.67;;;28.20;99.90;;;;;;5042218;28;20895;-59
2022/07/07 07:02:25;;;;;;;3.50;1.43;;;28.30;97.80;;;;;;5041853;28;20415;-57
2022/07/07 07:04:52;;;;;;;2.50;1.60;;;28.70;97.00;;;;;;5041995;28;20463;-60
2022/07/07 07:07:20;;;;;;;4.57;2.17;;;28.90;95.40;;;;;;5041851;28;20839;-59
2022/07/07 07:09:47;;;;;;;1.80;1.70;;;28.70;95.90;;;;;;5041726;28;20452;-60
2022/07/07 07:12:14;;;;;;;5.53;1.93;;;28.20;96.30;;;;;;5042295;28;20435;-59
2022/07/07 07:14:41;;;;;;;1.47;1.30;;;27.60;96.70;;;;;;5041565;28;20613;-58
2022/07/07 07:17:08;;;;;;;5.87;1.63;;;27.20;97.90;;;;;;5041614;28;20403;-58
2022/07/07 07:19:35;;;;;;;2.57;2.03;;;27.60;97.20;;;;;;5042057;28;20491;-56
2022/07/07 07:22:02;;;;;;;3.67;2.03;;;27.60;97.20;;;;;;5041941;28;20427;-59
2022/07/07 07:24:30;;;;;;;4.00;1.90;;;27.80;95.40;;;;;;5041714;28;20434;-60
2022/07/07 07:26:57;;;;;;;5.43;2.30;;;28.10;95.60;;;;;;5041315;28;20497;-57
2022/07/07 07:29:25;;;;;;;1.70;1.60;;;29.50;94.10;;;;;;5041459;28;20440;-59
2022/07/07 07:31:52;;;;;;;2.27;1.80;;;31.40;91.60;;;;;;5041215;28;20426;-58
2022/07/07 07:34:19;;;;;;;1.83;1.40;;;34.00;80.90;;;;;;5040114;28;20434;-58
2022/07/07 07:36:47;;;;;;;3.30;1.73;;;33.90;76.60;;;;;;5041321;28;20441;-59
2022/07/07 07:39:14;;;;;;;4.20;2.10;;;35.10;71.80;;;;;;5041537;28;20461;-57
2022/07/07 07:41:43;;;;;;;1.50;1.40;;;36.30;64.80;;;;;;5040965;28;20656;-59
2022/07/07 07:44:10;;;;;;;2.97;2.00;;;37.70;60.80;;;;;;5041491;28;20434;-55
2022/07/07 07:46:38;;;;;;;1.37;1.27;;;37.80;55.50;;;;;;5040998;28;20644;-58
2022/07/07 07:49:06;;;;;;;1.60;1.17;;;38.10;54.70;;;;;;5041271;28;20442;-59
2022/07/07 07:51:34;;;;;;;1.90;1.40;;;38.90;52.60;;;;;;5040941;28;20756;-57
2022/07/07 07:54:01;;;;;;;1.80;1.40;;;39.40;50.80;;;;;;5040607;28;20522;-56
2022/07/07 07:56:28;;;;;;;2.87;1.67;;;38.90;50.40;;;;;;5040679;28;20450;-59
2022/07/07 07:58:55;;;;;;;1.47;1.33;;;37.80;50.40;;;;;;5040757;28;20630;-58
2022/07/07 08:01:22;;;;;;;1.27;1.17;;;36.60;50.80;;;;;;5040973;28;20656;-59
2022/07/07 08:03:49;;;;;;;1.83;1.20;;;35.70;51.20;;;;;;5040950;28;20476;-56
2022/07/07 08:06:17;;;;;;;1.63;1.30;;;36.30;51.60;;;;;;5040661;28;20460;-59
2022/07/07 08:08:44;;;;;;;4.20;1.83;;;36.60;50.90;;;;;;5040189;28;20487;-58
2022/07/07 08:11:11;;;;;;;2.27;1.20;;;37.30;50.00;;;;;;5040613;28;20442;-57
2022/07/07 08:13:38;;;;;;;0.80;0.80;;;36.00;52.00;;;;;;5040502;28;20699;-59
2022/07/07 08:16:06;;;;;;;2.40;1.23;;;36.00;52.00;;;;;;5040444;28;20433;-59
2022/07/07 08:18:33;;;;;;;1.00;0.87;;;36.80;50.60;;;;;;5040252;28;20450;-58
2022/07/07 08:21:01;;;;;;;1.03;0.93;;;36.90;49.50;;;;;;5040506;28;20456;-58
2022/07/07 08:23:28;;;;;;;2.00;1.20;;;37.00;49.40;;;;;;5040554;28;20519;-58
2022/07/07 08:25:56;;;;;;;4.30;1.50;;;36.50;49.50;;;;;;5040602;28;20425;-57
2022/07/07 08:28:30;;;;;;;1.83;0.63;;;34.50;51.00;;;;;;5040598;28;20452;-57
2022/07/07 08:30:58;;;;;;;1.53;1.43;;;35.20;50.60;;;;;;5040724;28;20548;-59
2022/07/07 08:33:25;;;;;;;1.10;1.00;;;36.70;48.60;;;;;;5040145;28;20496;-60
2022/07/07 08:35:53;;;;;;;1.50;1.40;;;38.20;47.60;;;;;;5040631;28;20657;-56
2022/07/07 08:38:20;;;;;;;0.90;0.90;;;39.40;45.60;;;;;;5040093;28;20464;-60
2022/07/07 08:40:48;;;;;;;2.10;1.20;;;38.90;46.20;;;;;;5040238;28;20429;-59
2022/07/07 08:43:15;;;;;;;5.50;1.10;;;37.10;46.50;;;;;;5039888;28;20768;-58
2022/07/07 08:45:42;;;;;;;1.10;1.00;;;35.30;48.30;;;;;;5039849;28;20807;-58
2022/07/07 08:48:10;;;;;;;1.30;1.10;;;33.20;50.20;;;;;;5039683;28;20457;-58
2022/07/07 08:50:38;;;;;;;1.10;1.00;;;32.10;52.40;;;;;;5039973;28;20752;-58
2022/07/07 08:53:08;;;;;;;5.90;1.30;;;31.90;52.40;;;;;;5039470;28;20519;-57
2022/07/07 08:55:37;;;;;;;1.23;0.90;;;31.30;54.30;;;;;;5039757;28;20472;-58
2022/07/07 08:58:05;;;;;;;0.90;0.80;;;31.70;53.50;;;;;;5039734;28;20792;-58
2022/07/07 09:00:32;;;;;;;1.40;1.30;;;33.70;51.30;;;;;;5040360;28;20426;-58
2022/07/07 09:03:03;;;;;;;2.73;1.00;;;32.60;52.10;;;;;;5039849;28;20430;-57
2022/07/07 09:05:37;;;;;;;1.10;0.93;;;31.50;53.10;;;;;;5040199;28;20421;-57
2022/07/07 09:08:21;;;;;;;2.37;1.30;;;29.90;54.40;;;;;;5039680;28;20461;-57
2022/07/07 09:10:49;;;;;;;2.97;2.10;;;29.60;55.80;;;;;;5040088;28;20631;-50
2022/07/07 09:13:28;;;;;;;1.73;1.23;;;29.30;56.60;;;;;;5039422;28;20473;-56
2022/07/07 09:16:01;;;;;;;1.43;1.23;;;29.30;55.60;;;;;;5039875;28;20626;-55
2022/07/07 09:18:37;;;;;;;1.10;1.00;;;29.30;56.90;;;;;;5040132;28;20461;-59
2022/07/07 09:21:07;;;;;;;3.00;1.30;;;29.60;56.30;;;;;;5042405;28;20404;-58
2022/07/07 09:23:50;;;;;;;1.20;1.03;;;30.10;56.20;;;;;;5043059;28;20438;-58
2022/07/07 09:26:40;;;;;;;1.73;1.23;;;29.30;57.20;;;;;;5041470;28;20587;-57
2022/07/07 09:29:10;;;;;;;1.30;1.20;;;29.60;56.40;;;;;;5040402;28;20448;-56
2022/07/07 09:31:52;;;;;;;1.20;1.10;;;29.50;56.00;;;;;;5039624;28;20461;-55
2022/07/07 09:34:23;;;;;;;1.77;1.33;;;29.60;56.80;;;;;;5039348;28;20813;-57
2022/07/07 09:39:45;;;;;;;4.37;2.03;;;28.80;58.30;;;;;;5051707;22;20485;-52
2022/07/07 09:42:33;;;;;;;1.47;1.33;;;28.20;59.50;;;;;;5039927;28;20423;-49
2022/07/07 09:45:12;;;;;;;1.57;1.17;;;27.90;59.30;;;;;;5039588;28;20425;-49
2022/07/07 09:47:40;;;;;;;1.27;1.10;;;27.40;61.00;;;;;;5039943;28;20425;-54
2022/07/07 09:50:13;;;;;;;2.10;0.97;;;27.40;61.10;;;;;;5039628;28;20458;-47
2022/07/07 09:52:45;;;;;;;2.00;1.50;;;26.90;62.70;;;;;;5039618;28;20513;-51
2022/07/07 09:55:13;;;;;;;1.93;1.20;;;27.00;62.00;;;;;;5039733;28;20610;-53
2022/07/07 09:57:42;;;;;;;1.80;1.10;;;26.80;62.60;;;;;;5039425;28;20650;-50
2022/07/07 10:00:10;;;;;;;1.07;0.97;;;26.90;64.30;;;;;;5039672;28;20425;-51
2022/07/07 10:02:37;;;;;;;3.13;1.13;;;27.40;63.00;;;;;;5039695;28;20448;-53
2022/07/07 10:05:06;;;;;;;2.40;1.43;;;27.30;65.90;;;;;;5021985;28;20412;-51
2022/07/07 10:07:34;;;;;;;0.90;0.90;;;26.90;67.20;;;;;;5039600;28;20405;-51
2022/07/07 10:10:08;;;;;;;3.07;1.00;;;26.70;68.40;;;;;;5039576;28;20784;-51
2022/07/07 10:12:45;;;;;;;1.90;0.90;;;26.30;71.30;;;;;;5039641;28;20407;-53
2022/07/07 10:15:13;;;;;;;1.60;1.27;;;26.20;70.80;;;;;;5039414;28;20462;-53
2022/07/07 10:17:43;;;;;;;1.20;1.10;;;26.20;71.80;;;;;;5039238;28;20611;-51
2022/07/07 10:20:11;;;;;;;2.90;1.93;;;26.00;74.20;;;;;;5039176;28;20454;-53
2022/07/07 10:22:39;;;;;;;3.57;1.37;;;25.80;76.80;;;;;;5039458;28;20525;-54
2022/07/07 10:25:09;;;;;;;1.10;1.10;;;25.30;78.10;;;;;;5021891;28;20442;-53
2022/07/07 10:27:40;;;;;;;2.27;0.90;;;24.70;80.10;;;;;;5039312;28;20415;-50
2022/07/07 10:30:08;;;;;;;0.90;0.87;;;24.80;83.20;;;;;;5039288;28;20424;-49
2022/07/07 10:32:51;;;;;;;3.30;1.87;;;25.10;83.30;;;;;;5039206;28;20660;-52
2022/07/07 10:35:19;;;;;;;2.30;1.27;;;25.30;82.30;;;;;;5039345;28;20444;-51
2022/07/07 10:37:48;;;;;;;1.87;1.27;;;25.50;81.50;;;;;;5039196;28;20625;-53
2022/07/07 10:40:22;;;;;;;3.27;1.90;;;25.80;82.00;;;;;;5039148;28;20461;-48
2022/07/07 10:42:55;;;;;;;2.40;1.13;;;25.70;83.30;;;;;;5039108;28;20483;-51
2022/07/07 10:45:23;;;;;;;1.17;1.00;;;25.50;83.30;;;;;;5039060;28;20770;-51
2022/07/07 10:47:50;;;;;;;6.17;1.10;;;25.40;84.10;;;;;;5039391;28;20450;-51
2022/07/07 10:50:31;;;;;;;2.40;1.87;;;25.70;83.30;;;;;;5039122;28;20460;-51
2022/07/07 10:52:59;;;;;;;3.30;1.50;;;25.50;83.10;;;;;;5039347;28;20511;-53
2022/07/07 10:55:57;;;;;;;3.17;1.20;;;25.40;84.80;;;;;;5039715;28;20392;-50
2022/07/07 10:58:43;;;;;;;3.30;1.73;;;25.70;86.00;;;;;;5039170;28;20429;-48
2022/07/07 11:01:10;;;;;;;1.80;1.70;;;25.80;84.90;;;;;;5039401;28;20414;-52
2022/07/07 11:03:38;;;;;;;2.60;1.43;;;25.60;86.90;;;;;;5040381;28;20434;-52
2022/07/07 11:06:05;;;;;;;3.70;1.70;;;25.20;90.10;;;;;;5039963;28;20507;-51
2022/07/07 11:08:38;;;;;;;1.80;1.70;;;25.80;91.30;;;;;;5040108;28;20477;-52
2022/07/07 11:11:05;;;;;;;2.00;1.63;;;26.00;92.50;;;;;;5043077;28;20548;-47
2022/07/07 11:13:32;;;;;;;2.17;1.90;;;26.00;90.90;;;;;;5043126;28;20631;-52
2022/07/07 11:16:13;;;;;;;1.40;1.30;;;26.30;90.30;;;;;;5042657;28;20440;-50
2022/07/07 11:18:43;;;;;;;1.07;1.00;;;26.10;91.40;;;;;;5042338;28;20432;-50
2022/07/07 11:21:10;;;;;;;1.93;1.40;;;26.00;91.10;;;;;;5042973;28;20448;-49
2022/07/07 11:23:55;;;;;;;3.10;1.60;;;26.20;91.20;;;;;;5042926;28;20531;-48
2022/07/07 11:26:25;;;;;;;2.30;1.07;;;26.40;90.60;;;;;;5042626;28;20400;-52
2022/07/07 11:28:57;;;;;;;2.17;1.30;;;26.40;90.60;;;;;;5042187;28;20499;-52
2022/07/07 11:31:27;;;;;;;0.97;0.90;;;26.30;90.60;;;;;;5042733;28;20443;-49
2022/07/07 11:33:56;;;;;;;1.20;1.07;;;26.30;89.60;;;;;;5042134;28;20468;-50
2022/07/07 11:36:28;;;;;;;1.93;1.33;;;26.00;89.90;;;;;;5042144;28;20439;-49
2022/07/07 11:38:59;;;;;;;5.70;1.00;;;26.00;89.90;;;;;;5042124;28;20518;-49
2022/07/07 11:41:41;;;;;;;2.00;1.10;;;26.20;88.90;;;;;;5042240;28;20420;-53
2022/07/07 11:44:23;;;;;;;1.90;1.00;;;26.40;87.60;;;;;;5041637;28;20420;-52
2022/07/07 11:46:52;;;;;;;3.43;1.67;;;26.30;89.80;;;;;;5041664;28;20404;-51
2022/07/07 11:49:20;;;;;;;1.63;1.20;;;26.50;88.20;;;;;;5041550;28;20483;-49
2022/07/07 11:51:48;;;;;;;1.57;1.47;;;26.50;87.10;;;;;;5042297;28;20533;-49
2022/07/07 11:54:18;;;;;;;1.33;1.17;;;27.00;86.80;;;;;;5041099;28;20513;-49
2022/07/07 11:56:45;;;;;;;0.90;0.90;;;27.40;87.50;;;;;;5042345;28;20430;-53
2022/07/07 11:59:12;;;;;;;1.57;1.10;;;27.50;83.00;;;;;;5041546;28;20429;-49
2022/07/07 12:01:44;;;;;;;1.50;1.40;;;27.30;83.40;;;;;;5042352;28;20439;-51
2022/07/07 12:04:16;;;;;;;3.60;1.20;;;27.70;82.20;;;;;;5042076;28;20626;-51
2022/07/07 12:06:44;;;;;;;1.97;1.00;;;28.20;81.40;;;;;;5042278;28;20406;-50
2022/07/07 12:09:11;;;;;;;2.10;1.20;;;28.10;81.90;;;;;;5042189;28;20455;-48
2022/07/07 12:11:40;;;;;;;1.13;1.13;;;28.50;80.40;;;;;;5041792;28;20438;-51
2022/07/07 12:14:12;;;;;;;1.30;1.20;;;28.90;80.80;;;;;;5041509;28;20502;-52
2022/07/07 12:16:49;;;;;;;1.50;1.40;;;28.30;79.60;;;;;;5042348;28;20416;-52
2022/07/07 12:19:16;;;;;;;1.53;1.13;;;28.20;81.10;;;;;;5041942;28;20462;-51
2022/07/07 12:21:46;;;;;;;1.73;1.33;;;28.10;81.90;;;;;;5040774;28;20430;-51
2022/07/07 12:24:20;;;;;;;1.10;1.00;;;28.10;83.50;;;;;;5041487;28;20401;-51
2022/07/07 12:27:17;;;;;;;1.43;1.33;;;28.40;80.50;;;;;;5041070;28;20441;-55
2022/07/07 12:30:04;;;;;;;2.80;1.10;;;28.20;81.30;;;;;;5041014;28;20547;-50
2022/07/07 12:32:32;;;;;;;1.50;1.37;;;28.10;79.80;;;;;;5041208;28;20442;-49
2022/07/07 12:34:59;;;;;;;1.70;1.10;;;28.00;80.70;;;;;;5039883;28;20457;-52
2022/07/07 12:37:52;;;;;;;1.17;1.07;;;28.00;81.10;;;;;;5041360;28;20441;-48
2022/07/07 12:40:19;;;;;;;1.03;0.90;;;27.90;77.70;;;;;;5037215;28;20477;-51
2022/07/07 12:42:47;;;;;;;2.00;0.83;;;27.50;79.10;;;;;;5041008;28;20425;-47
2022/07/07 12:45:17;;;;;;;2.27;1.23;;;27.60;76.40;;;;;;5040945;28;20668;-49
2022/07/07 12:47:50;;;;;;;0.80;0.80;;;27.70;76.90;;;;;;5040690;28;20453;-50
2022/07/07 12:50:18;;;;;;;0.60;0.60;;;27.60;78.60;;;;;;5040789;28;20810;-49
2022/07/07 12:53:03;;;;;;;2.53;1.23;;;27.80;76.90;;;;;;5040574;28;20416;-51
2022/07/07 12:55:38;;;;;;;1.87;1.30;;;27.80;77.20;;;;;;5040177;28;20757;-54
2022/07/07 12:58:22;;;;;;;1.10;1.00;;;27.70;78.20;;;;;;5041184;28;20580;-54
2022/07/07 13:01:00;;;;;;;1.60;1.20;;;27.70;79.60;;;;;;5041025;28;20766;-52